INV weather

Inverness Airport
Inverness, Scotland, United Kingdom

Public forecast

Using degrees Celsius for public forecast. Weather courtesy of forecast.io.

Current aviation weather report (METAR) for Inverness Airport

Retrieved 2020/05/28 11:20 UTC (19 minutes ago):

EGPE 281120Z AUTO 24013KT 9999 NCD 20/13 Q1031

Closest aviation forecast (TAF) to Inverness Airport

Closest forecast is RAF Kinloss, 16.9 nm (31.4 km) ENE. Retrieved 2020/05/28 09:37 UTC (2 hours ago):

TAF EGQK 280729Z 2809/2903 27008KT 9999 SCT030 PROB30 2823/2903 0700 FG SCT002